createdAt,value
2024-03-11T00:01:32.748Z,118
2024-03-11T00:03:32.128Z,118
2024-03-11T00:05:32.752Z,118
2024-03-11T00:07:32.243Z,118
2024-03-11T00:09:32.370Z,118
2024-03-11T00:11:32.524Z,118
2024-03-11T00:13:32.147Z,120
2024-03-11T00:15:32.229Z,118
2024-03-11T00:17:32.699Z,118
2024-03-11T00:19:32.412Z,118
2024-03-11T00:21:32.231Z,118
2024-03-11T00:23:32.571Z,118
2024-03-11T00:25:32.127Z,118
2024-03-11T00:27:32.261Z,118
2024-03-11T00:29:32.735Z,118
2024-03-11T00:31:32.114Z,118
2024-03-11T00:33:33.023Z,118
2024-03-11T00:35:32.425Z,118
2024-03-11T00:37:32.228Z,118
2024-03-11T00:39:32.450Z,118
2024-03-11T00:41:32.504Z,120
2024-03-11T00:43:32.181Z,118
2024-03-11T00:45:32.134Z,120
2024-03-11T00:47:32.959Z,118
2024-03-11T00:49:32.267Z,118
2024-03-11T00:51:32.134Z,120
2024-03-11T00:53:32.576Z,118
2024-03-11T00:55:32.464Z,118
2024-03-11T00:57:32.397Z,118
2024-03-11T00:59:32.347Z,118
2024-03-11T01:01:32.901Z,118
2024-03-11T01:03:32.329Z,118
2024-03-11T01:05:32.773Z,118
2024-03-11T01:07:47.620Z,118
2024-03-11T01:09:32.343Z,120
2024-03-11T01:11:32.941Z,118
2024-03-11T01:13:32.269Z,118
2024-03-11T01:15:32.280Z,120
2024-03-11T01:17:32.555Z,120
2024-03-11T01:19:32.303Z,118
2024-03-11T01:21:32.562Z,118
2024-03-11T01:23:32.526Z,118
2024-03-11T01:25:32.271Z,120
2024-03-11T01:27:32.273Z,118
2024-03-11T01:29:32.531Z,118
2024-03-11T01:31:32.412Z,118
2024-03-11T01:33:32.640Z,120
2024-03-11T01:35:32.452Z,118
2024-03-11T01:37:32.574Z,120
2024-03-11T01:39:32.181Z,118
2024-03-11T01:41:32.669Z,120
2024-03-11T01:43:32.476Z,118
2024-03-11T01:45:32.175Z,118
2024-03-11T01:47:32.691Z,118
2024-03-11T01:49:32.409Z,118
2024-03-11T01:51:32.574Z,118
2024-03-11T01:53:32.607Z,118
2024-03-11T01:55:32.113Z,118
2024-03-11T01:57:32.291Z,118
2024-03-11T01:59:32.613Z,118
2024-03-11T02:01:32.519Z,118
2024-03-11T02:03:32.107Z,120
2024-03-11T02:05:32.728Z,118
2024-03-11T02:07:32.101Z,118
2024-03-11T02:09:32.378Z,118
2024-03-11T02:11:32.829Z,118
2024-03-11T02:13:32.276Z,118
2024-03-11T02:15:32.179Z,118
2024-03-11T02:17:38.053Z,118
2024-03-11T02:19:32.176Z,118
2024-03-11T02:21:32.105Z,118
2024-03-11T02:23:32.558Z,118
2024-03-11T02:25:32.817Z,118
2024-03-11T02:27:32.108Z,118
2024-03-11T02:29:32.643Z,118
2024-03-11T02:31:32.307Z,118
2024-03-11T02:33:33.036Z,118
2024-03-11T02:35:32.447Z,118
2024-03-11T02:37:32.100Z,118
2024-03-11T02:39:32.446Z,120
2024-03-11T02:41:32.401Z,120
2024-03-11T02:43:32.165Z,118
2024-03-11T02:45:32.887Z,118
2024-03-11T02:47:32.528Z,118
2024-03-11T02:49:32.119Z,118
2024-03-11T02:51:32.120Z,118
2024-03-11T02:53:32.729Z,118
2024-03-11T02:55:32.115Z,118
2024-03-11T02:57:32.305Z,118
2024-03-11T02:59:32.542Z,118
2024-03-11T03:01:32.293Z,118
2024-03-11T03:03:32.566Z,118
2024-03-11T03:05:32.549Z,118
2024-03-11T03:07:32.164Z,118
2024-03-11T03:09:32.111Z,118
2024-03-11T03:11:32.732Z,118
2024-03-11T03:13:32.243Z,118
2024-03-11T03:15:32.088Z,118
2024-03-11T03:17:32.741Z,118
2024-03-11T03:19:32.252Z,118
2024-03-11T03:21:32.086Z,118
2024-03-11T03:23:32.412Z,118
2024-03-11T03:25:32.262Z,118
2024-03-11T03:27:32.249Z,118
2024-03-11T03:29:34.350Z,118
2024-03-11T03:31:32.113Z,118
2024-03-11T03:33:32.391Z,118
2024-03-11T03:35:32.537Z,120
2024-03-11T03:37:32.213Z,120
2024-03-11T03:39:32.201Z,120
2024-03-11T03:41:32.265Z,120
2024-03-11T03:43:32.150Z,118
2024-03-11T03:45:32.334Z,118
2024-03-11T03:47:32.957Z,118
2024-03-11T03:49:32.204Z,118
2024-03-11T03:51:32.239Z,118
2024-03-11T03:53:32.325Z,120
2024-03-11T03:55:32.094Z,118
2024-03-11T03:57:32.113Z,118
2024-03-11T03:59:32.513Z,118
2024-03-11T04:01:32.537Z,118
2024-03-11T04:03:32.198Z,118
2024-03-11T04:05:32.624Z,118
2024-03-11T04:07:32.230Z,118
2024-03-11T04:09:32.225Z,118
2024-03-11T04:11:32.587Z,120
2024-03-11T04:13:32.091Z,118
2024-03-11T04:15:32.060Z,118
2024-03-11T04:17:32.751Z,118
2024-03-11T04:19:32.058Z,118
2024-03-11T04:21:32.222Z,118
2024-03-11T04:23:32.789Z,118
2024-03-11T04:25:32.103Z,118
2024-03-11T04:27:32.057Z,118
2024-03-11T04:29:32.776Z,120
2024-03-11T04:31:32.091Z,118
2024-03-11T04:33:32.464Z,118
2024-03-11T04:35:32.709Z,118
2024-03-11T04:37:32.227Z,118
2024-03-11T04:39:32.229Z,120
2024-03-11T04:41:32.450Z,118
2024-03-11T04:43:32.174Z,118
2024-03-11T04:45:32.164Z,118
2024-03-11T04:47:32.521Z,118
2024-03-11T04:49:32.248Z,118
2024-03-11T04:51:32.059Z,120
2024-03-11T04:53:32.459Z,120
2024-03-11T04:55:32.185Z,118
2024-03-11T04:57:32.139Z,118
2024-03-11T05:01:32.072Z,96
2024-03-11T05:03:32.172Z,94
2024-03-11T05:05:32.446Z,96
2024-03-11T05:07:32.196Z,96
2024-03-11T05:09:32.214Z,96
2024-03-11T05:11:32.958Z,96
2024-03-11T05:13:32.085Z,94
2024-03-11T05:15:32.272Z,22
2024-03-11T05:17:32.582Z,24
2024-03-11T05:19:32.104Z,26
2024-03-11T05:21:32.381Z,24
2024-03-11T05:23:32.482Z,24
2024-03-11T05:25:32.162Z,24
2024-03-11T05:27:32.183Z,30
2024-03-11T05:29:32.488Z,28
2024-03-11T05:31:32.081Z,28
2024-03-11T05:33:36.158Z,32
2024-03-11T05:35:32.649Z,30
2024-03-11T05:37:32.299Z,30
2024-03-11T05:39:32.085Z,32
2024-03-11T05:41:32.501Z,24
2024-03-11T05:43:32.204Z,24
2024-03-11T05:45:33.626Z,28
2024-03-11T05:47:32.461Z,28
2024-03-11T05:49:32.073Z,32
2024-03-11T05:51:32.076Z,28
2024-03-11T05:53:32.410Z,30
2024-03-11T05:55:32.077Z,30
2024-03-11T05:57:32.469Z,28
2024-03-11T05:59:32.505Z,30
2024-03-11T06:01:32.427Z,30
2024-03-11T06:03:33.728Z,30
2024-03-11T06:05:32.339Z,32
2024-03-11T06:07:32.055Z,32
2024-03-11T06:09:32.793Z,34
2024-03-11T06:11:36.283Z,32
2024-03-11T06:13:32.155Z,34
2024-03-11T06:15:32.203Z,32
2024-03-11T06:17:32.802Z,32
2024-03-11T06:19:32.118Z,32
2024-03-11T06:21:33.331Z,32
2024-03-11T06:23:33.222Z,34
2024-03-11T06:25:32.218Z,32
2024-03-11T06:27:32.081Z,34
2024-03-11T06:29:32.587Z,32
2024-03-11T06:31:32.203Z,34
2024-03-11T06:33:32.315Z,34
2024-03-11T06:35:32.426Z,34
2024-03-11T06:37:32.073Z,32
2024-03-11T06:39:32.117Z,34
2024-03-11T06:41:39.889Z,34
2024-03-11T06:43:34.151Z,28
2024-03-11T06:45:32.516Z,32
2024-03-11T06:47:32.417Z,34
2024-03-11T06:49:32.057Z,34
2024-03-11T06:51:32.089Z,32
2024-03-11T06:53:32.070Z,32
2024-03-11T06:55:32.090Z,34
2024-03-11T06:57:32.287Z,34
2024-03-11T06:59:32.372Z,32
2024-03-11T07:01:32.169Z,32
2024-03-11T07:03:32.327Z,32
2024-03-11T07:05:37.664Z,34
2024-03-11T07:07:32.081Z,34
2024-03-11T07:09:32.069Z,32
2024-03-11T07:11:32.335Z,32
2024-03-11T07:13:32.175Z,34
2024-03-11T07:15:32.149Z,34
2024-03-11T07:17:32.394Z,32
2024-03-11T07:19:32.210Z,34
2024-03-11T07:21:32.075Z,32
2024-03-11T07:23:35.402Z,34
2024-03-11T07:25:32.279Z,32
2024-03-11T07:27:32.050Z,30
2024-03-11T07:29:32.186Z,32
2024-03-11T07:31:32.378Z,32
2024-03-11T07:33:32.606Z,32
2024-03-11T07:35:32.209Z,32
2024-03-11T07:37:32.187Z,32
2024-03-11T07:39:32.140Z,32
2024-03-11T07:41:32.052Z,32
2024-03-11T07:43:32.575Z,32
2024-03-11T07:45:32.187Z,32
2024-03-11T07:47:32.281Z,32
2024-03-11T07:49:32.184Z,32
2024-03-11T07:51:32.486Z,32
2024-03-11T07:53:32.205Z,32
2024-03-11T07:55:32.196Z,32
2024-03-11T07:57:32.543Z,32
2024-03-11T07:59:32.094Z,34
2024-03-11T08:01:32.540Z,32
2024-03-11T08:03:32.829Z,32
2024-03-11T08:05:32.187Z,32
2024-03-11T08:07:32.189Z,32
2024-03-11T08:09:32.037Z,32
2024-03-11T08:11:32.318Z,32
2024-03-11T08:13:32.067Z,32
2024-03-11T08:15:32.082Z,32
2024-03-11T08:17:34.453Z,32
2024-03-11T08:19:32.048Z,32
2024-03-11T08:21:32.379Z,34
2024-03-11T08:23:36.203Z,32
2024-03-11T08:25:32.050Z,34
2024-03-11T08:27:32.034Z,34
2024-03-11T08:29:32.466Z,32
2024-03-11T08:31:32.087Z,32
2024-03-11T08:33:35.243Z,32
2024-03-11T08:35:32.049Z,32
2024-03-11T08:37:32.723Z,32
2024-03-11T08:39:32.752Z,32
2024-03-11T08:41:32.060Z,32
2024-03-11T08:43:32.604Z,34
2024-03-11T08:45:32.140Z,32
2024-03-11T08:47:32.478Z,32
2024-03-11T08:49:32.487Z,34
2024-03-11T08:51:32.052Z,32
2024-03-11T08:53:34.130Z,32
2024-03-11T08:55:32.123Z,30
2024-03-11T08:57:32.300Z,32
2024-03-11T08:59:32.362Z,32
2024-03-11T09:01:32.362Z,30
2024-03-11T09:03:32.993Z,32
2024-03-11T09:05:32.196Z,32
2024-03-11T09:07:32.041Z,34
2024-03-11T09:09:32.417Z,32
2024-03-11T09:11:32.423Z,32
2024-03-11T09:13:32.048Z,32
2024-03-11T09:15:32.445Z,32
2024-03-11T09:17:32.280Z,32
2024-03-11T09:19:32.159Z,32
2024-03-11T09:21:32.562Z,32
2024-03-11T09:23:32.080Z,32
2024-03-11T09:25:32.611Z,32
2024-03-11T09:27:32.323Z,34
2024-03-11T09:29:33.233Z,32
2024-03-11T09:31:32.081Z,32
2024-03-11T09:33:32.686Z,34
2024-03-11T09:35:32.015Z,32
2024-03-11T09:37:32.301Z,32
2024-03-11T09:39:32.622Z,32
2024-03-11T09:41:32.085Z,32
2024-03-11T09:43:33.166Z,32
2024-03-11T09:45:33.541Z,32
2024-03-11T09:47:32.672Z,32
2024-03-11T09:49:32.029Z,32
2024-03-11T09:51:32.309Z,32
2024-03-11T09:53:32.506Z,32
2024-03-11T09:55:32.074Z,32
2024-03-11T09:57:32.400Z,32
2024-03-11T09:59:32.128Z,30
2024-03-11T10:01:32.572Z,30
2024-03-11T10:03:34.181Z,32
2024-03-11T10:05:32.650Z,32
2024-03-11T10:07:32.177Z,32
2024-03-11T10:09:32.349Z,32
2024-03-11T10:11:33.094Z,32
2024-03-11T10:13:32.113Z,32
2024-03-11T10:15:32.519Z,32
2024-03-11T10:17:32.291Z,34
2024-03-11T10:19:32.024Z,34
2024-03-11T10:21:32.127Z,32
2024-03-11T10:23:32.075Z,32
2024-03-11T10:25:32.284Z,30
2024-03-11T10:27:32.150Z,32
2024-03-11T10:29:32.098Z,32
2024-03-11T10:31:32.122Z,34
2024-03-11T10:33:32.791Z,42
2024-03-11T10:35:32.041Z,32
2024-03-11T10:37:32.027Z,32
2024-03-11T10:39:33.609Z,32
2024-03-11T10:41:32.107Z,32
2024-03-11T10:43:32.049Z,30
2024-03-11T10:45:32.531Z,32
2024-03-11T10:47:32.544Z,32
2024-03-11T10:49:32.006Z,32
2024-03-11T10:51:35.925Z,32
2024-03-11T10:53:32.114Z,32
2024-03-11T10:55:32.588Z,32
2024-03-11T10:57:32.552Z,32
2024-03-11T10:59:32.011Z,32
2024-03-11T11:01:32.310Z,32
2024-03-11T11:03:33.009Z,32
2024-03-11T11:05:31.998Z,32
2024-03-11T11:07:32.563Z,34
2024-03-11T11:09:32.149Z,32
2024-03-11T11:11:32.191Z,34
2024-03-11T11:13:32.111Z,32
2024-03-11T11:15:32.198Z,32
2024-03-11T11:17:32.439Z,32
2024-03-11T11:19:32.127Z,32
2024-03-11T11:21:32.214Z,32
2024-03-11T11:23:31.987Z,34
2024-03-11T11:25:32.092Z,32
2024-03-11T11:27:32.367Z,32
2024-03-11T11:29:32.210Z,32
2024-03-11T11:31:32.020Z,32
2024-03-11T11:33:32.419Z,32
2024-03-11T11:35:32.123Z,32
2024-03-11T11:37:32.147Z,32
2024-03-11T11:39:32.400Z,32
2024-03-11T11:41:32.006Z,32
2024-03-11T11:43:31.981Z,30
2024-03-11T11:45:32.425Z,32
2024-03-11T11:47:32.346Z,32
2024-03-11T11:49:32.212Z,32
2024-03-11T11:51:32.210Z,32
2024-03-11T11:53:32.028Z,32
2024-03-11T11:55:32.685Z,32
2024-03-11T11:57:38.961Z,30
2024-03-11T11:59:31.996Z,32
2024-03-11T12:01:33.218Z,32
2024-03-11T12:03:33.067Z,32
2024-03-11T12:05:32.127Z,32
2024-03-11T12:07:33.051Z,34
2024-03-11T12:09:32.228Z,32
2024-03-11T12:11:32.566Z,32
2024-03-11T12:13:31.990Z,34
2024-03-11T12:15:32.287Z,32
2024-03-11T12:17:32.734Z,32
2024-03-11T12:19:32.335Z,32
2024-03-11T12:21:32.684Z,32
2024-03-11T12:23:32.152Z,32
2024-03-11T12:25:31.980Z,32
2024-03-11T12:27:32.451Z,32
2024-03-11T12:29:31.990Z,32
2024-03-11T12:31:31.984Z,32
2024-03-11T12:33:32.557Z,32
2024-03-11T12:35:32.005Z,32
2024-03-11T12:37:37.314Z,32
2024-03-11T12:39:32.336Z,32
2024-03-11T12:41:32.343Z,32
2024-03-11T12:43:32.601Z,30
2024-03-11T12:45:32.566Z,30
2024-03-11T12:47:32.290Z,32
2024-03-11T12:49:32.447Z,30
2024-03-11T12:51:32.651Z,30
2024-03-11T12:53:32.137Z,32
2024-03-11T12:55:32.144Z,32
2024-03-11T12:57:32.441Z,32
2024-03-11T12:59:32.912Z,34
2024-03-11T13:01:31.982Z,30
2024-03-11T13:03:32.806Z,32
2024-03-11T13:05:32.322Z,32
2024-03-11T13:07:31.940Z,32
2024-03-11T13:09:32.424Z,34
2024-03-11T13:11:32.227Z,32
2024-03-11T13:13:31.969Z,32
2024-03-11T13:15:32.325Z,34
2024-03-11T13:17:32.198Z,32
2024-03-11T13:19:32.316Z,32
2024-03-11T13:21:32.336Z,32
2024-03-11T13:23:32.008Z,32
2024-03-11T13:25:32.121Z,32
2024-03-11T13:27:32.351Z,32
2024-03-11T13:29:31.969Z,32
2024-03-11T13:31:34.018Z,32
2024-03-11T13:33:32.369Z,32
2024-03-11T13:35:31.968Z,32
2024-03-11T13:37:32.129Z,32
2024-03-11T13:39:32.199Z,32
2024-03-11T13:41:32.219Z,32
2024-03-11T13:43:32.141Z,32
2024-03-11T13:45:32.114Z,30
2024-03-11T13:47:32.355Z,32
2024-03-11T13:49:31.995Z,30
2024-03-11T13:51:32.210Z,32
2024-03-11T13:53:32.123Z,32
2024-03-11T13:55:31.968Z,32
2024-03-11T13:57:32.310Z,32
2024-03-11T13:59:32.051Z,30
2024-03-11T14:01:32.424Z,32
2024-03-11T14:03:34.811Z,30
2024-03-11T14:05:31.970Z,32
2024-03-11T14:07:31.942Z,32
2024-03-11T14:09:32.489Z,32
2024-03-11T14:11:32.330Z,30
2024-03-11T14:13:32.023Z,32
2024-03-11T14:15:32.270Z,30
2024-03-11T14:17:32.174Z,32
2024-03-11T14:19:31.972Z,32
2024-03-11T14:21:32.179Z,30
2024-03-11T14:23:32.109Z,30
2024-03-11T14:25:32.244Z,30
2024-03-11T14:27:32.231Z,32
2024-03-11T14:29:32.026Z,32
2024-03-11T14:31:32.151Z,30
2024-03-11T14:33:33.113Z,30
2024-03-11T14:35:31.960Z,30
2024-03-11T14:37:32.023Z,30
2024-03-11T14:39:32.416Z,28
2024-03-11T14:41:35.534Z,32
2024-03-11T14:43:32.016Z,32
2024-03-11T14:45:32.341Z,30
2024-03-11T14:47:32.265Z,30
2024-03-11T14:49:32.004Z,30
2024-03-11T14:51:32.193Z,32
2024-03-11T14:53:31.917Z,30
2024-03-11T14:55:31.971Z,32
2024-03-11T14:57:32.242Z,32
2024-03-11T14:59:31.952Z,32
2024-03-11T15:01:35.289Z,32
2024-03-11T15:03:32.361Z,32
2024-03-11T15:05:31.941Z,32
2024-03-11T15:07:31.970Z,32
2024-03-11T15:09:32.188Z,34
2024-03-11T15:11:32.287Z,32
2024-03-11T15:13:33.894Z,30
2024-03-11T15:15:32.155Z,32
2024-03-11T15:17:32.373Z,30
2024-03-11T15:19:32.098Z,30
2024-03-11T15:21:32.262Z,28
2024-03-11T15:23:31.968Z,34
2024-03-11T15:25:31.944Z,30
2024-03-11T15:27:32.148Z,32
2024-03-11T15:29:32.267Z,26
2024-03-11T15:31:32.136Z,28
2024-03-11T15:33:32.548Z,32
2024-03-11T15:35:31.994Z,30
2024-03-11T15:37:32.539Z,26
2024-03-11T15:39:32.510Z,36
2024-03-11T15:41:33.307Z,30
2024-03-11T15:43:33.054Z,30
2024-03-11T15:45:32.428Z,30
2024-03-11T15:47:32.245Z,30
2024-03-11T15:49:33.177Z,28
2024-03-11T15:51:32.379Z,28
2024-03-11T15:53:33.140Z,30
2024-03-11T15:55:33.102Z,32
2024-03-11T15:57:32.500Z,30
2024-03-11T15:59:31.968Z,30
2024-03-11T16:01:32.403Z,30
2024-03-11T16:03:32.236Z,30
2024-03-11T16:05:32.133Z,30
2024-03-11T16:07:32.172Z,30
2024-03-11T16:09:32.260Z,30
2024-03-11T16:11:32.199Z,30
2024-03-11T16:13:34.944Z,32
2024-03-11T16:15:32.555Z,32
2024-03-11T16:17:32.595Z,32
2024-03-11T16:19:31.946Z,30
2024-03-11T16:21:32.455Z,32
2024-03-11T16:23:32.103Z,30
2024-03-11T16:25:32.010Z,30
2024-03-11T16:27:32.379Z,32
2024-03-11T16:29:31.949Z,30
2024-03-11T16:31:31.946Z,30
2024-03-11T16:33:32.734Z,32
2024-03-11T16:35:31.939Z,32
2024-03-11T16:37:32.671Z,28
2024-03-11T16:39:32.265Z,30
2024-03-11T16:41:31.896Z,28
2024-03-11T16:43:31.924Z,30
2024-03-11T16:45:32.185Z,30
2024-03-11T16:47:31.901Z,30
2024-03-11T16:49:32.058Z,28
2024-03-11T16:51:32.245Z,30
2024-03-11T16:53:32.040Z,30
2024-03-11T16:55:33.087Z,28
2024-03-11T16:57:32.501Z,30
2024-03-11T16:59:31.954Z,28
2024-03-11T17:01:32.193Z,28
2024-03-11T17:03:32.360Z,30
2024-03-11T17:05:32.605Z,28
2024-03-11T17:07:32.074Z,28
2024-03-11T17:09:32.249Z,28
2024-03-11T17:11:32.250Z,34
2024-03-11T17:13:31.920Z,28
2024-03-11T17:15:32.493Z,26
2024-03-11T17:17:32.241Z,26
2024-03-11T17:19:31.957Z,28
2024-03-11T17:21:32.398Z,28
2024-03-11T17:23:31.926Z,28
2024-03-11T17:25:31.982Z,28
2024-03-11T17:27:32.238Z,22
2024-03-11T17:29:31.937Z,30
2024-03-11T17:31:31.934Z,26
2024-03-11T17:33:32.386Z,28
2024-03-11T17:35:31.902Z,28
2024-03-11T17:37:32.590Z,26
2024-03-11T17:39:32.443Z,24
2024-03-11T17:41:32.054Z,20
2024-03-11T17:43:32.084Z,26
2024-03-11T17:45:32.599Z,20
2024-03-11T17:47:32.519Z,16
2024-03-11T17:49:32.064Z,20
2024-03-11T17:51:32.534Z,22
2024-03-11T17:53:32.179Z,20
2024-03-11T17:55:35.071Z,22
2024-03-11T17:57:32.327Z,20
2024-03-11T17:59:32.145Z,22
2024-03-11T18:01:32.902Z,18
2024-03-11T18:03:32.740Z,22
2024-03-11T18:05:31.912Z,26
2024-03-11T18:07:36.606Z,24
2024-03-11T18:09:32.401Z,24
2024-03-11T18:11:32.240Z,22
2024-03-11T18:13:32.189Z,26
2024-03-11T18:15:32.363Z,24
2024-03-11T18:17:32.171Z,28
2024-03-11T18:19:31.950Z,24
2024-03-11T18:21:32.073Z,26
2024-03-11T18:23:31.906Z,24
2024-03-11T18:25:32.064Z,24
2024-03-11T18:27:32.248Z,26
2024-03-11T18:29:32.052Z,22
2024-03-11T18:31:32.180Z,22
2024-03-11T18:33:33.298Z,26
2024-03-11T18:35:32.061Z,24
2024-03-11T18:37:32.033Z,24
2024-03-11T18:39:32.238Z,22
2024-03-11T18:41:32.071Z,30
2024-03-11T18:43:31.952Z,26
2024-03-11T18:45:35.042Z,22
2024-03-11T18:47:32.503Z,28
2024-03-11T18:49:32.084Z,26
2024-03-11T18:51:32.401Z,26
2024-03-11T18:53:31.958Z,28
2024-03-11T18:55:34.176Z,26
2024-03-11T18:57:32.474Z,28
2024-03-11T18:59:31.958Z,26
2024-03-11T19:01:34.110Z,32
2024-03-11T19:03:34.542Z,22
2024-03-11T19:05:32.137Z,16
2024-03-11T19:07:43.176Z,20
2024-03-11T19:09:40.591Z,20
2024-03-11T19:11:32.281Z,20
2024-03-11T19:13:32.087Z,18
2024-03-11T19:15:35.565Z,22
2024-03-11T19:17:32.579Z,20
2024-03-11T19:19:32.004Z,22
2024-03-11T19:21:35.159Z,24
2024-03-11T19:25:41.902Z,20
2024-03-11T19:27:32.125Z,20
2024-03-11T19:29:35.942Z,24
2024-03-11T19:31:34.241Z,10
2024-03-11T19:33:39.788Z,20
2024-03-11T19:35:32.511Z,20
2024-03-11T19:37:31.883Z,24
2024-03-11T19:39:32.391Z,26
2024-03-11T19:41:31.959Z,20
2024-03-11T19:43:31.960Z,22
2024-03-11T19:45:32.184Z,22
2024-03-11T19:47:32.164Z,24
2024-03-11T19:49:32.263Z,24
2024-03-11T19:51:32.268Z,22
2024-03-11T19:53:31.965Z,24
2024-03-11T19:55:31.921Z,26
2024-03-11T19:57:32.109Z,26
2024-03-11T19:59:31.900Z,22
2024-03-11T20:01:32.299Z,24
2024-03-11T20:03:32.094Z,22
2024-03-11T20:05:32.009Z,26
2024-03-11T20:07:32.085Z,24
2024-03-11T20:09:32.407Z,24
2024-03-11T20:11:32.099Z,24
2024-03-11T20:13:31.904Z,22
2024-03-11T20:15:32.333Z,22
2024-03-11T20:17:32.432Z,24
2024-03-11T20:19:32.073Z,24
2024-03-11T20:21:32.088Z,22
2024-03-11T20:23:31.994Z,24
2024-03-11T20:25:31.931Z,22
2024-03-11T20:27:35.024Z,24
2024-03-11T20:29:31.955Z,22
2024-03-11T20:31:31.910Z,24
2024-03-11T20:33:32.541Z,26
2024-03-11T20:35:31.941Z,26
2024-03-11T20:37:32.156Z,24
2024-03-11T20:39:32.259Z,24
2024-03-11T20:41:32.191Z,24
2024-03-11T20:43:32.098Z,24
2024-03-11T20:45:32.161Z,20
2024-03-11T20:47:31.872Z,16
2024-03-11T20:49:32.064Z,18
2024-03-11T20:51:32.241Z,24
2024-03-11T20:53:35.073Z,22
2024-03-11T20:55:32.033Z,20
2024-03-11T20:57:32.196Z,22
2024-03-11T20:59:31.905Z,18
2024-03-11T21:01:32.691Z,20
2024-03-11T21:03:32.654Z,22
2024-03-11T21:05:32.353Z,18
2024-03-11T21:07:34.959Z,22
2024-03-11T21:09:32.656Z,22
2024-03-11T21:11:36.480Z,24
2024-03-11T21:13:35.275Z,18
2024-03-11T21:15:32.036Z,24
2024-03-11T21:17:32.176Z,22
2024-03-11T21:19:31.946Z,24
2024-03-11T21:21:32.320Z,24
2024-03-11T21:23:31.945Z,20
2024-03-11T21:25:31.966Z,22
2024-03-11T21:27:32.173Z,24
2024-03-11T21:29:31.853Z,22
2024-03-11T21:31:31.937Z,20
2024-03-11T21:33:32.120Z,22
2024-03-11T21:35:31.866Z,20
2024-03-11T21:37:32.324Z,20
2024-03-11T21:39:32.184Z,22
2024-03-11T21:41:31.971Z,20
2024-03-11T21:43:31.982Z,22
2024-03-11T21:45:32.106Z,24
2024-03-11T21:47:32.304Z,22
2024-03-11T21:49:31.872Z,24
2024-03-11T21:51:32.219Z,20
2024-03-11T21:53:33.421Z,20
2024-03-11T21:55:32.052Z,20
2024-03-11T21:57:32.367Z,18
2024-03-11T21:59:48.505Z,22
2024-03-11T22:01:32.112Z,24
2024-03-11T22:03:33.998Z,22
2024-03-11T22:05:32.027Z,22
2024-03-11T22:07:31.968Z,24
2024-03-11T22:09:32.271Z,22
2024-03-11T22:11:44.297Z,20
2024-03-11T22:13:35.755Z,22
2024-03-11T22:15:38.215Z,22
2024-03-11T22:17:35.277Z,20
2024-03-11T22:19:31.873Z,24
2024-03-11T22:21:32.144Z,24
2024-03-11T22:23:31.842Z,22
2024-03-11T22:25:32.061Z,22
2024-03-11T22:27:35.987Z,22
2024-03-11T22:29:31.963Z,22
2024-03-11T22:31:31.985Z,20
2024-03-11T22:33:32.012Z,24
2024-03-11T22:35:31.993Z,22
2024-03-11T22:37:31.902Z,20
2024-03-11T22:39:32.052Z,24
2024-03-11T22:41:31.985Z,24
2024-03-11T22:43:31.847Z,24
2024-03-11T22:45:32.402Z,20
2024-03-11T22:47:32.215Z,24
2024-03-11T22:49:32.239Z,20
2024-03-11T22:51:32.231Z,22
2024-03-11T22:53:31.886Z,20
2024-03-11T22:55:31.850Z,22
2024-03-11T22:57:32.535Z,22
2024-03-11T22:59:31.883Z,24
2024-03-11T23:01:32.531Z,22
2024-03-11T23:03:34.190Z,26
2024-03-11T23:05:31.848Z,22
2024-03-11T23:07:31.871Z,22
2024-03-11T23:09:32.226Z,20
2024-03-11T23:11:32.073Z,20
2024-03-11T23:13:32.091Z,26
2024-03-11T23:15:32.274Z,24
2024-03-11T23:17:32.177Z,24
2024-03-11T23:19:31.917Z,24
2024-03-11T23:21:32.304Z,20
2024-03-11T23:23:31.862Z,22
2024-03-11T23:25:31.858Z,18
2024-03-11T23:27:32.164Z,22
2024-03-11T23:29:34.543Z,22
2024-03-11T23:31:31.953Z,22
2024-03-11T23:33:32.437Z,22
2024-03-11T23:35:32.002Z,22
2024-03-11T23:37:32.086Z,24
2024-03-11T23:39:32.340Z,22
2024-03-11T23:41:31.920Z,22
2024-03-11T23:43:34.196Z,24
2024-03-11T23:45:32.167Z,24
2024-03-11T23:47:32.180Z,22
2024-03-11T23:49:31.979Z,22
2024-03-11T23:51:32.338Z,18
2024-03-11T23:53:31.837Z,22
2024-03-11T23:55:31.838Z,20
2024-03-11T23:57:32.117Z,22
2024-03-11T23:59:32.130Z,24
